CHH7179 ZBAA-ZJSY
Flight info
| Callsign | CHH7179 |
|---|---|
| Flight time | N/A |
| Altitude | 36100 |
| Route | ZBAA SID ELKUR W40 OVNUG W562 IGMUD W37 HOK A461 LIG R473 BEMAG V5 CON W6 NLG V19 UDUTI V20 BIGRO G221 UPRIS STAR ZJSY |
| Aircraft | B738/M-SDE2E3FGHIRWXY/LB1 |
Departure
| Time | 2026-05-01 09:35 |
|---|---|
| Airport | Beijing Capital International Airport (ZBAA) |
Arrival
| Time | N/A |
|---|---|
| Airport | Sanya Phoenix International Airport (ZJSY) |
| Time | Latitude | Longitude | Altitude | Speed | Heading |
|---|---|---|---|---|---|
| 2026-05-01 09:31 | 40.07974 | 116.59226 | 121 ft | 10 kts | 353° |
| 2026-05-01 09:31 | 40.08206 | 116.59308 | 120 ft | 9 kts | 354° |
| 2026-05-01 09:32 | 40.08333 | 116.59287 | 119 ft | 9 kts | 352° |
| 2026-05-01 09:32 | 40.08615 | 116.59244 | 122 ft | 13 kts | 353° |
| 2026-05-01 09:32 | 40.08792 | 116.59230 | 121 ft | 13 kts | 30° |
| 2026-05-01 09:33 | 40.08820 | 116.59350 | 122 ft | 0 kts | 83° |
| 2026-05-01 09:33 | 40.08820 | 116.59355 | 122 ft | 1 kts | 83° |
| 2026-05-01 09:33 | 40.08817 | 116.59484 | 123 ft | 7 kts | 122° |
| 2026-05-01 09:34 | 40.08775 | 116.59510 | 120 ft | 7 kts | 172° |
| 2026-05-01 09:34 | 40.08712 | 116.59520 | 121 ft | 15 kts | 173° |
| 2026-05-01 09:34 | 40.07602 | 116.59695 | 123 ft | 141 kts | 173° |
| 2026-05-01 09:35 | 40.06488 | 116.59879 | 251 ft | 178 kts | 172° |
| 2026-05-01 09:35 | 40.04124 | 116.60232 | 2121 ft | 157 kts | 173° |
| 2026-05-01 09:35 | 40.02350 | 116.60536 | 2985 ft | 184 kts | 169° |
| 2026-05-01 09:36 | 39.99466 | 116.61010 | 3574 ft | 229 kts | 173° |
| 2026-05-01 09:36 | 39.96133 | 116.61465 | 4420 ft | 264 kts | 175° |
| 2026-05-01 09:36 | 39.92459 | 116.62020 | 6184 ft | 263 kts | 175° |
| 2026-05-01 09:36 | 39.88747 | 116.62629 | 7589 ft | 275 kts | 175° |
| 2026-05-01 09:37 | 39.84885 | 116.63248 | 9079 ft | 284 kts | 176° |
| 2026-05-01 09:37 | 39.76510 | 116.64514 | 10814 ft | 339 kts | 175° |
| 2026-05-01 09:37 | 39.71573 | 116.65017 | 11459 ft | 366 kts | 187° |